Flight Track Log - Related Links

Times and Time Zones

All times are in EDT time to prevent confusion due to time zone crossing. See the UAL717 flight status page for this flight to view local times or setup timezone preferences in your user account.

Time Position Orientation Groundspeed Altitude Reporting Facility
EDT Latitude Longitude Course Direction KTS MPH feet Rate Location/Type
Mon 06:39:30 PM 42.3500 -70.9833 289° West 195 224 500  Level KA90
Mon 06:40:01 PM 42.3333 -70.9500 124° Southeast 204 235 1,300 1,912 Climbing KA90
Mon 06:41:01 PM 42.3167 -70.8667 105° East 265 305 3,400 2,450 Climbing KA90
Mon 06:42:00 PM 42.5799 -70.8398 308° West  Level FlightAware Approximate
Mon 06:42:01 PM 42.3500 -70.7667 66° East 287 330 6,200  Level KA90
Mon 06:43:00 PM 42.6468 -70.9656 300° West  Level FlightAware Approximate
Mon 06:43:05 PM 42.4144 -70.7219 27° Northeast 258 297 8,900  Level Boston Center
Mon 06:44:00 PM 42.7032 -71.1010 300° West  Level FlightAware Approximate
Mon 06:44:05 PM 42.4939 -70.7422 349° North 243 280 11,100  Level Boston Center
Mon 06:45:00 PM 42.7590 -71.2359 289° West  Level FlightAware Approximate
Mon 06:45:05 PM 42.5453 -70.8281 309° West 243 280 13,300  Level Boston Center
Mon 06:45:35 PM 45.5167 -73.3833 329° Northwest 60 69 900 1,333 Descending Montreal Center
Mon 06:48:05 PM 42.6347 -71.1392 150° Southeast 294 338 17,300 4,857 Climbing Boston Center
Mon 06:49:05 PM 42.6650 -71.2431 292° West 315 362 17,900 800 Climbing Boston Center
Mon 06:50:05 PM 42.7103 -71.3833 294° West 357 411 18,900 1,150 Climbing Boston Center
Mon 06:51:05 PM 42.7531 -71.5239 293° West 383 441 20,200 1,350 Climbing Boston Center
Mon 06:52:05 PM 42.8247 -71.6447 309° West 408 470 21,600 1,400 Climbing Boston Center
Mon 06:53:05 PM 42.9131 -71.7542 318° Northwest 414 476 23,000 1,400 Climbing Boston Center
Mon 06:54:05 PM 43.0056 -71.8694 318° Northwest 425 489 24,400 1,350 Climbing Boston Center
Mon 06:55:05 PM 43.0956 -71.9822 318° Northwest 435 501 25,700 1,300 Climbing Boston Center
Mon 06:56:05 PM 43.1856 -72.0983 317° Northwest 440 506 27,000 1,300 Climbing Boston Center
Mon 06:57:05 PM 43.2797 -72.2178 317° Northwest 445 512 28,300 1,200 Climbing Boston Center
Mon 06:58:05 PM 43.3714 -72.3344 317° Northwest 451 519 29,400 1,100 Climbing Boston Center
Mon 06:59:05 PM 43.4653 -72.4572 317° Northwest 451 519 30,500 1,100 Climbing Boston Center
Mon 07:00:05 PM 43.5550 -72.5775 316° Northwest 451 519 31,600 1,100 Climbing Boston Center
Mon 07:01:05 PM 43.6483 -72.6983 317° Northwest 451 519 32,700 1,100 Climbing Boston Center
Mon 07:02:05 PM 43.7272 -72.8078 315° West 441 507 33,800 650 Climbing Boston Center
Mon 07:03:05 PM 43.8186 -72.9264 317° Northwest 441 507 34,000 100 Climbing Boston Center
Mon 07:04:05 PM 43.9158 -73.0597 315° West 447 514 34,000  Level Boston Center
Mon 07:05:05 PM 44.0069 -73.1761 317° Northwest 447 514 34,000  Level Boston Center
Mon 07:06:05 PM 44.0936 -73.2928 316° Northwest 447 514 34,000  Level Boston Center
Mon 07:07:05 PM 44.1842 -73.4128 316° Northwest 447 514 34,000  Level Boston Center
Mon 07:08:05 PM 44.2728 -73.5303 317° Northwest 447 514 34,000  Level Boston Center
Mon 07:09:05 PM 44.3592 -73.6450 317° Northwest 442 509 34,000  Level Boston Center
Mon 07:10:05 PM 44.4289 -73.7394 316° Northwest 436 502 34,000  Level Boston Center
Mon 07:11:05 PM 44.5317 -73.8758 317° Northwest 426 490 34,000  Level Boston Center
Mon 07:12:05 PM 44.6133 -73.9914 315° West 421 484 34,000  Level Boston Center
Mon 07:13:05 PM 44.6950 -74.1103 314° West 421 484 34,000  Level Boston Center
Mon 07:14:05 PM 44.7786 -74.2297 315° West 421 484 34,000  Level Boston Center
Mon 07:15:05 PM 44.8664 -74.3497 316° Northwest 421 484 34,000  Level Boston Center
Mon 07:16:14 PM 44.9500 -74.4500 320° Northwest 410 472 34,000  Level Montreal Center
Mon 07:17:14 PM 45.0167 -74.5667 309° West 410 472 34,000  Level Montreal Center
Mon 07:18:14 PM 45.1000 -74.6833 315° West 410 472 34,000  Level Montreal Center
Mon 07:19:14 PM 45.1833 -74.8000 315° West 410 472 34,000  Level Montreal Center
Mon 07:20:14 PM 45.2667 -74.9167 315° West 410 472 34,000  Level Montreal Center
Mon 07:21:14 PM 45.3500 -75.0167 320° Northwest 410 472 34,000  Level Montreal Center
Mon 07:22:14 PM 45.4333 -75.1500 312° West 410 472 34,000  Level Montreal Center
Mon 07:23:14 PM 45.5000 -75.2500 314° West 420 483 34,000  Level Montreal Center
Mon 07:24:14 PM 45.5833 -75.4000 308° West 420 483 34,000  Level Montreal Center
Mon 07:25:14 PM 45.6833 -75.4833 330° Northwest 420 483 34,000  Level Montreal Center
Mon 07:26:14 PM 45.7667 -75.6333 309° West 410 472 34,000  Level Montreal Center
Mon 07:27:14 PM 45.8500 -75.7333 320° Northwest 410 472 34,000 350 Level Montreal Center
Mon 07:28:14 PM 45.9000 -75.8667 298° West 410 472 34,700 950 Climbing Montreal Center
Mon 07:29:14 PM 45.9167 -76.0167 279° West 400 460 35,900 650 Climbing Montreal Center
Mon 07:30:14 PM 45.9500 -76.1833 286° West 380 437 36,000 50 Climbing Montreal Center
Mon 07:31:14 PM 45.9667 -76.3333 279° West 380 437 36,000  Level Montreal Center
Mon 07:32:14 PM 45.9833 -76.4667 280° West 380 437 36,000  Level Montreal Center
Mon 07:33:14 PM 46.0167 -76.6167 288° West 390 449 36,000  Level Montreal Center
Mon 07:33:54 PM 46.0167 -76.7000 270° West 390 449 36,000  Level Toronto Center
Mon 07:34:54 PM 46.0333 -76.8667 278° West 400 460 36,000  Level Toronto Center
Mon 07:35:54 PM 46.0500 -77.0167 279° West 400 460 36,000  Level Toronto Center
Mon 07:36:54 PM 46.0667 -77.1833 278° West 390 449 36,000  Level Toronto Center
Mon 07:37:54 PM 46.0833 -77.3167 280° West 400 460 36,000  Level Toronto Center
Mon 07:38:54 PM 46.1167 -77.4833 286° West 390 449 36,000  Level Toronto Center
Mon 07:39:54 PM 46.1333 -77.6333 279° West 390 449 36,000  Level Toronto Center
Mon 07:40:54 PM 46.1667 -77.8000 286° West 390 449 36,000  Level Toronto Center
Mon 07:41:54 PM 46.1667 -77.9500 270° West 390 449 36,000  Level Toronto Center
Mon 07:42:54 PM 46.2000 -78.0833 290° West 390 449 36,000  Level Toronto Center
Mon 07:43:54 PM 46.2167 -78.2500 278° West 390 449 36,000  Level Toronto Center
Mon 07:44:54 PM 46.2167 -78.4000 270° West 390 449 36,000  Level Toronto Center
Mon 07:45:54 PM 46.2667 -78.5667 294° West 390 449 36,000  Level Toronto Center
Mon 07:46:54 PM 46.2833 -78.7167 279° West 390 449 36,000  Level Toronto Center
Mon 07:47:54 PM 46.3000 -78.8833 278° West 390 449 36,000  Level Toronto Center
Mon 07:48:54 PM 46.3167 -79.0333 279° West 400 460 36,000  Level Toronto Center
Mon 07:49:54 PM 46.3333 -79.2000 278° West 410 472 36,000  Level Toronto Center
Mon 07:50:54 PM 46.3500 -79.3667 278° West 410 472 36,000  Level Toronto Center
Mon 07:51:54 PM 46.3500 -79.5333 270° West 410 472 36,000  Level Toronto Center
Mon 07:52:54 PM 46.3667 -79.6833 279° West 420 483 36,000  Level Toronto Center
Mon 07:53:54 PM 46.3667 -79.8500 270° West 410 472 36,000  Level Toronto Center
Mon 07:54:54 PM 46.3667 -80.0167 270° West 410 472 36,000  Level Toronto Center
Mon 07:55:54 PM 46.3833 -80.1833 278° West 410 472 36,000  Level Toronto Center
Mon 07:56:54 PM 46.3833 -80.3500 270° West 410 472 36,000  Level Toronto Center
Mon 07:57:54 PM 46.3833 -80.5333 270° West 410 472 36,000  Level Toronto Center
Mon 07:58:54 PM 46.3833 -80.6667 270° West 410 472 36,000  Level Toronto Center
Mon 07:59:54 PM 46.4000 -80.8667 277° West 410 472 36,000  Level Toronto Center
Mon 08:00:54 PM 46.3833 -81.0167 261° West 410 472 36,000  Level Toronto Center
Mon 08:01:54 PM 46.3833 -81.1833 270° West 410 472 36,000  Level Toronto Center
Mon 08:02:54 PM 46.4000 -81.3500 278° West 410 472 36,000  Level Toronto Center
Mon 08:03:54 PM 46.4000 -81.5000 270° West 410 472 36,000  Level Toronto Center
Mon 08:04:54 PM 46.4000 -81.6833 270° West 410 472 36,000  Level Toronto Center
Mon 08:05:54 PM 46.4000 -81.8333 270° West 410 472 36,000  Level Toronto Center
Mon 08:06:54 PM 46.3833 -82.0000 262° West 410 472 36,000  Level Toronto Center
Mon 08:07:54 PM 46.3667 -82.1667 262° West 410 472 36,000  Level Toronto Center
Mon 08:08:54 PM 46.3500 -82.3333 262° West 410 472 36,000  Level Toronto Center
Mon 08:09:54 PM 46.3333 -82.4833 261° West 410 472 36,000  Level Toronto Center
Mon 08:10:54 PM 46.3167 -82.6500 262° West 410 472 36,000  Level Toronto Center
Mon 08:11:54 PM 46.2833 -82.8167 254° West 410 472 36,000  Level Toronto Center
Mon 08:12:54 PM 46.2667 -82.9833 262° West 410 472 36,000  Level Toronto Center
Mon 08:13:54 PM 46.2500 -83.1500 262° West 420 483 36,000  Level Toronto Center
Mon 08:14:54 PM 46.2167 -83.3000 252° West 420 483 36,000  Level Toronto Center
Mon 08:15:54 PM 46.1833 -83.4667 254° West 420 483 36,000  Level Toronto Center
Mon 08:16:54 PM 46.1667 -83.6333 262° West 420 483 36,000  Level Toronto Center
Mon 08:17:54 PM 46.1333 -83.8000 254° West 420 483 36,000  Level Toronto Center
Mon 08:18:54 PM 46.1167 -83.9667 262° West 420 483 36,000  Level Toronto Center
Mon 08:19:54 PM 46.1000 -84.1333 262° West 420 483 36,000  Level Toronto Center
Mon 08:20:54 PM 46.0667 -84.3000 254° West 420 483 36,000  Level Toronto Center
Mon 08:21:54 PM 46.0500 -84.4333 260° West 420 483 36,000  Level Toronto Center
Mon 08:22:54 PM 46.0333 -84.6000 262° West 410 472 36,000  Level Toronto Center
Mon 08:23:54 PM 46.0000 -84.7667 254° West 410 472 36,000  Level Toronto Center
Mon 08:24:54 PM 45.9833 -84.9333 262° West 410 472 36,000  Level Toronto Center
Mon 08:25:25 PM 45.9817 -84.9892 268° West 410 472 36,000 -65 Level Minneapolis Center
Mon 08:26:27 PM 45.9567 -85.1500 257° West 413 475 35,900  Descending Minneapolis Center
Mon 08:27:28 PM 45.9272 -85.3425 258° West 414 476 36,000 49 Climbing Minneapolis Center
Mon 08:28:30 PM 45.9008 -85.5014 257° West 413 475 36,000  Level Minneapolis Center
Mon 08:29:32 PM 45.8761 -85.6617 258° West 413 475 36,000  Level Minneapolis Center
Mon 08:30:34 PM 45.8500 -85.8197 257° West 412 474 36,000  Level Minneapolis Center
Mon 08:31:35 PM 45.8244 -85.9775 257° West 410 472 36,000 -49 Level Minneapolis Center
Mon 08:32:37 PM 45.7989 -86.1372 257° West 412 474 35,900  Descending Minneapolis Center
Mon 08:33:51 PM 45.7678 -86.3264 257° West 410 472 36,000 44 Climbing Minneapolis Center
Mon 08:34:53 PM 45.7356 -86.5167 256° West 413 475 36,000  Level Minneapolis Center
Mon 08:35:55 PM 45.7086 -86.6758 256° West 412 474 36,000  Level Minneapolis Center
Mon 08:36:57 PM 45.6814 -86.8342 256° West 414 476 36,000 -48 Level Minneapolis Center
Mon 08:37:59 PM 45.6531 -86.9928 256° West 415 478 35,900  Descending Minneapolis Center
Mon 08:39:01 PM 45.6211 -87.1817 256° West 414 476 36,000 44 Climbing Minneapolis Center
Mon 08:40:15 PM 45.5925 -87.3403 256° West 414 476 36,000 -44 Level Minneapolis Center
Mon 08:41:17 PM 45.5589 -87.5289 256° West 412 474 35,900 -48 Descending Minneapolis Center
Mon 08:42:19 PM 45.5308 -87.6869 256° West 413 475 35,900 48 Level Minneapolis Center
Mon 08:43:21 PM 45.5022 -87.8436 255° West 411 473 36,000  Climbing Minneapolis Center
Mon 08:44:23 PM 45.4736 -88.0011 256° West 412 474 35,900 -48 Descending Minneapolis Center
Mon 08:45:25 PM 45.4389 -88.1897 255° West 411 473 35,900 48 Level Minneapolis Center
Mon 08:46:27 PM 45.4103 -88.3403 255° West 409 471 36,000 48 Climbing Minneapolis Center
Mon 08:47:29 PM 45.3803 -88.5006 255° West 415 478 36,000  Level Minneapolis Center
Mon 08:48:31 PM 45.3508 -88.6586 255° West 413 475 36,000  Level Minneapolis Center
Mon 08:49:33 PM 45.3203 -88.8169 255° West 414 476 36,000  Level Minneapolis Center
Mon 08:50:35 PM 45.2831 -89.0072 255° West 415 478 36,000  Level Minneapolis Center
Mon 08:51:49 PM 45.2522 -89.1669 255° West 417 480 36,000  Level Minneapolis Center
Mon 08:52:52 PM 45.2144 -89.3611 255° West 421 484 36,000  Level Minneapolis Center
Mon 08:53:54 PM 45.1831 -89.5189 254° West 418 481 36,000  Level Minneapolis Center
Mon 08:54:56 PM 45.1508 -89.6778 254° West 419 482 36,000  Level Minneapolis Center
Mon 08:56:10 PM 45.1197 -89.8364 255° West 418 481 36,000  Level Minneapolis Center
Mon 08:57:13 PM 45.0803 -90.0267 254° West 418 481 36,000  Level Minneapolis Center
Mon 08:58:15 PM 45.0411 -90.2161 254° West 419 482 36,000  Level Minneapolis Center
Mon 08:59:17 PM 45.0086 -90.3722 254° West 415 478 36,000  Level Minneapolis Center
Mon 09:00:19 PM 44.9767 -90.5311 254° West 419 482 36,000  Level Minneapolis Center
Mon 09:01:21 PM 44.9431 -90.6897 253° West 423 487 36,000  Level Minneapolis Center
Mon 09:02:22 PM 44.9164 -90.8172 254° West 424 488 36,000  Level Minneapolis Center
Mon 09:03:25 PM 44.8758 -91.0047 253° West 420 483 36,000  Level Minneapolis Center
Mon 09:04:27 PM 44.8361 -91.1950 254° West 422 486 36,000  Level Minneapolis Center
Mon 09:05:29 PM 44.8011 -91.3517 253° West 422 486 36,000  Level Minneapolis Center
Mon 09:06:31 PM 44.7672 -91.5097 253° West 423 487 36,000  Level Minneapolis Center
Mon 09:07:33 PM 44.7333 -91.6681 253° West 424 488 36,000  Level Minneapolis Center
Mon 09:08:35 PM 44.6989 -91.8258 253° West 424 488 36,000  Level Minneapolis Center
Mon 09:09:37 PM 44.6644 -91.9814 253° West 421 484 36,000  Level Minneapolis Center
Mon 09:10:39 PM 44.6219 -92.1697 252° West 422 486 36,000  Level Minneapolis Center
Mon 09:11:41 PM 44.5856 -92.3269 252° West 424 488 36,000  Level Minneapolis Center
Mon 09:12:43 PM 44.5503 -92.4817 252° West 418 481 36,000  Level Minneapolis Center
Mon 09:13:45 PM 44.5133 -92.6367 252° West 419 482 36,000  Level Minneapolis Center
Mon 09:14:47 PM 44.4775 -92.7917 252° West 417 480 36,000  Level Minneapolis Center
Mon 09:15:48 PM 44.4481 -92.9153 252° West 417 480 36,000  Level Minneapolis Center
Mon 09:16:51 PM 44.4039 -93.1036 252° West 420 483 36,000  Level Minneapolis Center
Mon 09:17:53 PM 44.3667 -93.2583 251° West 418 481 36,000  Level Minneapolis Center
Mon 09:19:07 PM 44.3225 -93.4447 252° West 418 481 36,000  Level Minneapolis Center
Mon 09:20:09 PM 44.2794 -93.6286 252° West 416 479 36,000  Level Minneapolis Center
Mon 09:21:11 PM 44.2431 -93.7819 252° West 416 479 36,000  Level Minneapolis Center
Mon 09:22:13 PM 44.2067 -93.9364 252° West 419 482 36,000  Level Minneapolis Center
Mon 09:24:28 PM 44.1322 -94.2419 251° West 416 479 36,000  Level Minneapolis Center
Mon 09:25:31 PM 44.0794 -94.4544 251° West 416 479 36,000  Level Minneapolis Center
Mon 09:26:33 PM 44.0425 -94.6014 251° West 414 476 36,000  Level Minneapolis Center
Mon 09:27:34 PM 44.0025 -94.7533 250° West 417 480 36,000  Level Minneapolis Center
Mon 09:28:36 PM 43.9650 -94.9044 251° West 416 479 36,000  Level Minneapolis Center
Mon 09:29:50 PM 43.9247 -95.0553 250° West 416 479 36,000  Level Minneapolis Center
Mon 09:30:52 PM 43.8778 -95.2358 250° West 414 476 36,000  Level Minneapolis Center
Mon 09:31:54 PM 43.8314 -95.4156 250° West 412 474 36,000  Level Minneapolis Center
Mon 09:33:08 PM 43.7844 -95.5936 250° West 410 472 36,000  Level Minneapolis Center
Mon 09:34:10 PM 43.7725 -95.7511 264° West 413 475 36,000  Level Minneapolis Center
Mon 09:35:12 PM 43.7633 -95.9089 265° West 410 472 36,000  Level Minneapolis Center
Mon 09:36:13 PM 43.7544 -96.0661 266° West 409 471 36,000  Level Minneapolis Center
Mon 09:37:15 PM 43.7456 -96.2231 266° West 408 470 36,000  Level Minneapolis Center
Mon 09:38:17 PM 43.7372 -96.3814 266° West 411 473 36,000  Level Minneapolis Center
Mon 09:39:18 PM 43.7364 -96.5383 270° West 408 470 36,000  Level Minneapolis Center
Mon 09:40:20 PM 43.7414 -96.7272 272° West 409 471 36,000  Level Minneapolis Center
Mon 09:41:22 PM 43.7442 -96.8842 271° West 408 470 36,000  Level Minneapolis Center
Mon 09:42:23 PM 43.7472 -97.0103 272° West 410 472 36,000  Level Minneapolis Center
Mon 09:43:37 PM 43.7519 -97.1972 272° West 407 468 36,000  Level Minneapolis Center
Mon 09:44:39 PM 43.7611 -97.3839 274° West 407 468 36,000  Level Minneapolis Center
Mon 09:45:41 PM 43.7744 -97.5397 277° West 408 470 36,000  Level Minneapolis Center
Mon 09:46:42 PM 43.7856 -97.6617 277° West 403 464 36,000  Level Minneapolis Center
Mon 09:47:44 PM 43.8006 -97.8439 277° West 399 459 36,000  Level Minneapolis Center
Mon 09:48:45 PM 43.8158 -98.0256 277° West 396 456 36,000  Level Minneapolis Center
Mon 09:49:47 PM 43.8297 -98.1767 277° West 396 456 36,000  Level Minneapolis Center
Mon 09:50:48 PM 43.8119 -98.3244 261° West 394 453 36,000  Level Minneapolis Center
Mon 09:51:50 PM 43.7778 -98.4697 252° West 397 457 36,000  Level Minneapolis Center
Mon 09:52:51 PM 43.7419 -98.6136 251° West 397 457 36,000  Level Minneapolis Center
Mon 09:53:52 PM 43.6953 -98.7708 248° West 399 459 36,000  Level Minneapolis Center
Mon 09:54:54 PM 43.6503 -98.9078 246° West 395 455 36,000  Level Minneapolis Center
Mon 09:55:55 PM 43.6044 -99.0494 246° West 398 458 36,000  Level Minneapolis Center
Mon 09:56:57 PM 43.5603 -99.1897 247° West 400 460 36,000  Level Minneapolis Center
Mon 09:57:58 PM 43.5150 -99.3297 246° West 399 459 36,000  Level Minneapolis Center
Mon 09:59:00 PM 43.4686 -99.4717 246° West 401 461 36,000  Level Minneapolis Center
Mon 10:00:15 PM 43.4139 -99.6483 247° West 410 472 36,000  Level Minneapolis Center
Mon 10:01:16 PM 43.3450 -99.7758 233° Southwest 418 481 36,000  Level Minneapolis Center
Mon 10:02:30 PM 43.2311 -99.9403 226° Southwest 425 489 36,000  Level Minneapolis Center
Mon 10:03:32 PM 43.1500 -100.0567 226° Southwest 422 486 36,000  Level Minneapolis Center
Mon 10:04:33 PM 43.0700 -100.1744 227° Southwest 422 486 36,000  Level Minneapolis Center
Mon 10:05:34 PM 42.9894 -100.2953 228° Southwest 427 491 36,000  Level Minneapolis Center
Mon 10:07:01 PM 42.8628 -100.4522 222° Southwest 441 507 36,000  Level Denver Center
Mon 10:08:03 PM 42.7694 -100.5625 221° Southwest 443 510 36,000  Level Denver Center
Mon 10:09:05 PM 42.6697 -100.6844 222° Southwest 444 511 36,000  Level Denver Center
Mon 10:10:06 PM 42.5672 -100.8097 222° Southwest 444 511 36,000  Level Denver Center
Mon 10:11:08 PM 42.4758 -100.9111 219° Southwest 443 510 36,000  Level Denver Center
Mon 10:12:10 PM 42.3753 -100.9914 211° Southwest 440 506 36,000  Level Denver Center
Mon 10:13:12 PM 42.2578 -101.0883 211° Southwest 442 509 36,000  Level Denver Center
Mon 10:14:14 PM 42.1561 -101.1647 209° Southwest 439 505 36,000  Level Denver Center
Mon 10:15:16 PM 42.0375 -101.2539 209° Southwest 437 503 36,000  Level Denver Center
Mon 10:16:18 PM 41.9367 -101.3303 209° Southwest 435 501 36,000  Level Denver Center
Mon 10:17:19 PM 41.8164 -101.4178 208° Southwest 440 506 36,000  Level Denver Center
Mon 10:18:21 PM 41.7139 -101.4933 209° Southwest 441 507 36,000  Level Denver Center
Mon 10:19:23 PM 41.5800 -101.5500 198° South 457 526 36,000 484 Level Denver Center
Mon 10:20:25 PM 41.4681 -101.6011 199° South 451 519 37,000 871 Climbing Denver Center
Mon 10:21:27 PM 41.3811 -101.7303 228° Southwest 433 498 37,800 484 Climbing Denver Center
Mon 10:22:29 PM 41.3367 -101.8683 247° West 428 493 38,000 98 Climbing Denver Center
Mon 10:23:30 PM 41.2914 -102.0258 249° West 414 476 38,000  Level Denver Center
Mon 10:24:32 PM 41.2528 -102.1633 250° West 416 479 38,000  Level Denver Center
Mon 10:25:34 PM 41.2111 -102.3028 248° West 423 487 38,000  Level Denver Center
Mon 10:26:36 PM 41.1631 -102.4664 249° West 426 490 38,000  Level Denver Center
Mon 10:27:38 PM 41.1211 -102.6086 249° West 431 496 38,000  Level Denver Center
Mon 10:28:39 PM 41.0719 -102.7739 249° West 433 498 38,000  Level Denver Center
Mon 10:29:42 PM 41.0283 -102.9175 248° West 439 505 38,000  Level Denver Center
Mon 10:30:43 PM 40.9814 -103.0747 248° West 436 502 38,000  Level Denver Center
Mon 10:31:45 PM 40.9364 -103.2214 248° West 436 502 38,000  Level Denver Center
Mon 10:32:47 PM 40.8908 -103.3686 248° West 435 501 38,000  Level Denver Center
Mon 10:33:48 PM 40.8475 -103.5150 249° West 431 496 38,000  Level Denver Center
Mon 10:34:50 PM 40.7953 -103.6883 248° West 426 490 38,000  Level Denver Center
Mon 10:35:52 PM 40.7506 -103.8319 248° West 425 489 38,000  Level Denver Center
Mon 10:36:54 PM 40.7058 -103.9736 247° West 422 486 38,000  Level Denver Center
Mon 10:37:55 PM 40.6611 -104.1178 248° West 426 490 38,000  Level Denver Center
Mon 10:38:57 PM 40.6161 -104.2619 248° West 427 491 38,000  Level Denver Center
Mon 10:39:59 PM 40.5719 -104.4011 247° West 419 482 38,000  Level Denver Center
Mon 10:41:01 PM 40.5172 -104.5731 247° West 424 488 38,000  Level Denver Center
Mon 10:42:02 PM 40.4725 -104.7147 248° West 423 487 38,000  Level Denver Center
Mon 10:43:04 PM 40.4269 -104.8567 247° West 424 488 38,000  Level Denver Center
Mon 10:44:06 PM 40.3808 -105.0006 247° West 429 494 38,000  Level Denver Center
Mon 10:45:08 PM 40.3350 -105.1417 247° West 424 488 38,000  Level Denver Center
Mon 10:46:09 PM 40.2878 -105.2869 247° West 434 499 38,000  Level Denver Center
Mon 10:47:11 PM 40.2328 -105.4539 247° West 421 484 38,000  Level Denver Center
Mon 10:48:13 PM 40.1867 -105.5892 246° West 411 473 38,000  Level Denver Center
Mon 10:49:14 PM 40.1419 -105.7253 247° West 410 472 38,000  Level Denver Center
Mon 10:50:16 PM 40.0958 -105.8597 246° West 407 468 38,000  Level Denver Center
Mon 10:51:18 PM 40.0511 -105.9972 247° West 411 473 38,000  Level Denver Center
Mon 10:52:19 PM 40.0042 -106.1358 246° West 417 480 38,000  Level Denver Center
Mon 10:53:21 PM 39.9567 -106.2733 246° West 417 480 38,000  Level Denver Center
Mon 10:54:23 PM 39.8986 -106.4400 246° West 422 486 38,000  Level Denver Center
Mon 10:55:24 PM 39.8592 -106.5586 247° West 421 484 38,000  Level Denver Center
Mon 10:56:26 PM 39.8017 -106.7256 246° West 425 489 38,000  Level Denver Center
Mon 10:57:28 PM 39.7533 -106.8650 246° West 429 494 38,000  Level Denver Center
Mon 10:58:29 PM 39.7067 -107.0028 246° West 429 494 38,000  Level Denver Center
Mon 10:59:31 PM 39.6539 -107.1517 245° Southwest 423 487 38,000  Level Denver Center
Mon 11:00:33 PM 39.6069 -107.2831 245° Southwest 420 483 38,000  Level Denver Center
Mon 11:01:34 PM 39.5525 -107.4361 245° Southwest 419 482 38,000  Level Denver Center
Mon 11:02:36 PM 39.5058 -107.5672 245° Southwest 418 481 38,000  Level Denver Center
Mon 11:03:37 PM 39.4603 -107.6972 246° West 415 478 38,000  Level Denver Center
Mon 11:04:39 PM 39.4064 -107.8506 246° West 417 480 38,000  Level Denver Center
Mon 11:05:41 PM 39.3589 -107.9819 245° Southwest 418 481 38,000  Level Denver Center
Mon 11:06:42 PM 39.3044 -108.1339 245° Southwest 416 479 38,000  Level Denver Center
Mon 11:07:44 PM 39.2583 -108.2639 245° Southwest 416 479 38,000  Level Denver Center
Mon 11:08:46 PM 39.2103 -108.3969 245° Southwest 438 504 38,000  Level Denver Center
Mon 11:09:47 PM 39.1569 -108.5467 245° Southwest 423 487 38,000  Level Denver Center
Mon 11:10:49 PM 39.1089 -108.6747 244° Southwest 413 475 38,000  Level Denver Center
Mon 11:11:50 PM 39.0536 -108.8247 245° Southwest 412 474 38,000  Level Denver Center
Mon 11:12:52 PM 39.0056 -108.9528 244° Southwest 413 475 38,000  Level Denver Center
Mon 11:13:54 PM 38.9572 -109.0814 244° Southwest 414 476 38,000  Level Denver Center
Mon 11:14:55 PM 38.9025 -109.2311 245° Southwest 414 476 38,000  Level Denver Center
Mon 11:15:57 PM 38.8542 -109.3592 244° Southwest 415 478 38,000  Level Denver Center
Mon 11:16:59 PM 38.7989 -109.5075 244° Southwest 414 476 38,000  Level Denver Center
Mon 11:18:00 PM 38.7497 -109.6336 243° Southwest 410 472 38,000  Level Denver Center
Mon 11:19:02 PM 38.6933 -109.7822 244° Southwest 414 476 38,000  Level Denver Center
Mon 11:20:03 PM 38.6439 -109.9100 244° Southwest 419 482 38,000  Level Denver Center
Mon 11:21:05 PM 38.5956 -110.0364 244° Southwest 414 476 38,000  Level Denver Center
Mon 11:22:07 PM 38.5392 -110.1836 244° Southwest 413 475 38,000  Level Denver Center
Mon 11:23:08 PM 38.4900 -110.3103 244° Southwest 415 478 38,000  Level Denver Center
Mon 11:23:53 PM 38.4494 -110.4156 244° Southwest 415 478 38,000  Level Salt Lake Center
Mon 11:24:54 PM 38.3997 -110.5425 243° Southwest 417 480 38,000  Level Salt Lake Center
Mon 11:25:56 PM 38.3417 -110.6886 243° Southwest 414 476 38,000  Level Salt Lake Center
Mon 11:26:57 PM 38.2917 -110.8142 243° Southwest 415 478 38,000  Level Salt Lake Center
Mon 11:27:58 PM 38.2453 -110.9342 244° Southwest 418 481 38,000  Level Salt Lake Center
Mon 11:29:00 PM 38.1833 -111.0911 243° Southwest 414 476 38,000  Level Salt Lake Center
Mon 11:30:01 PM 38.1311 -111.2228 243° Southwest 418 481 38,000  Level Salt Lake Center
Mon 11:31:02 PM 38.0794 -111.3539 243° Southwest 417 480 38,000  Level Salt Lake Center
Mon 11:32:03 PM 38.0267 -111.4833 243° Southwest 415 478 38,000  Level Salt Lake Center
Mon 11:33:05 PM 37.9742 -111.6136 243° Southwest 415 478 38,000  Level Salt Lake Center
Mon 11:34:06 PM 37.9214 -111.7461 243° Southwest 420 483 38,000  Level Salt Lake Center
Mon 11:35:07 PM 37.8678 -111.8758 242° Southwest 418 481 38,000  Level Salt Lake Center
Mon 11:36:08 PM 37.8142 -112.0047 242° Southwest 415 478 38,000  Level Salt Lake Center
Mon 11:37:10 PM 37.7608 -112.1353 243° Southwest 417 480 38,000  Level Salt Lake Center
Mon 11:38:11 PM 37.7069 -112.2656 242° Southwest 419 482 38,000  Level Salt Lake Center
Mon 11:39:12 PM 37.6256 -112.4078 234° Southwest 418 481 38,000  Level Salt Lake Center
Mon 11:40:13 PM 37.5506 -112.5206 230° Southwest 417 480 38,000  Level Salt Lake Center
Mon 11:41:14 PM 37.4758 -112.6339 230° Southwest 416 479 38,000  Level Salt Lake Center
Mon 11:42:16 PM 37.3992 -112.7489 230° Southwest 420 483 38,000  Level Salt Lake Center
Mon 11:43:17 PM 37.3253 -112.8650 231° Southwest 421 484 38,000  Level Salt Lake Center
Mon 11:44:18 PM 37.2525 -112.9786 231° Southwest 417 480 38,000  Level Salt Lake Center
Mon 11:45:19 PM 37.1789 -113.0911 231° Southwest 416 479 38,000  Level Salt Lake Center
Mon 11:46:20 PM 37.1050 -113.2039 231° Southwest 416 479 38,000  Level Salt Lake Center
Mon 11:47:21 PM 37.0322 -113.3164 231° Southwest 416 479 38,000  Level Salt Lake Center
Mon 11:48:22 PM 36.9589 -113.4314 231° Southwest 420 483 38,000  Level Salt Lake Center
Mon 11:49:24 PM 36.8856 -113.5439 231° Southwest 419 482 38,000  Level Salt Lake Center
Mon 11:50:25 PM 36.8117 -113.6558 231° Southwest 418 481 38,000  Level Salt Lake Center
Mon 11:51:26 PM 36.7375 -113.7692 231° Southwest 421 484 38,000  Level Salt Lake Center
Mon 11:52:57 PM 36.6169 -113.9456 230° Southwest 420 483 38,000  Level Los Angeles Center
Mon 11:53:58 PM 36.5572 -114.0353 230° Southwest 422 486 38,000  Level Los Angeles Center
Mon 11:55:12 PM 36.4622 -114.1758 230° Southwest 419 482 38,000  Level Los Angeles Center
Mon 11:56:14 PM 36.3714 -114.3106 230° Southwest 422 486 38,000  Level Los Angeles Center
Mon 11:57:16 PM 36.2961 -114.4228 230° Southwest 422 486 38,000  Level Los Angeles Center
Mon 11:58:17 PM 36.2214 -114.5344 230° Southwest 420 483 38,000  Level Los Angeles Center
Mon 11:59:19 PM 36.1444 -114.6450 229° Southwest 420 483 38,000  Level Los Angeles Center
Tue 12:00:20 AM 36.0678 -114.7575 230° Southwest 423 487 38,000  Level Los Angeles Center
Tue 12:01:22 AM 35.9917 -114.8706 230° Southwest 425 489 38,000  Level Los Angeles Center
Tue 12:02:23 AM 35.8956 -114.9994 227° Southwest 423 487 38,000  Level Los Angeles Center
Tue 12:03:25 AM 35.8147 -115.1089 228° Southwest 428 493 38,000  Level Los Angeles Center
Tue 12:04:39 AM 35.7344 -115.2169 228° Southwest 428 493 38,000  Level Los Angeles Center
Tue 12:05:40 AM 35.6372 -115.3506 228° Southwest 433 498 38,000  Level Los Angeles Center
Tue 12:06:42 AM 35.5344 -115.4192 209° Southwest 443 510 38,000 -537 Level Los Angeles Center
Tue 12:07:43 AM 35.4178 -115.4464 191° South 430 495 36,900 -1,171 Descending Los Angeles Center
Tue 12:08:45 AM 35.3044 -115.4728 191° South 424 488 35,600 -1,220 Descending Los Angeles Center
Tue 12:09:46 AM 35.2103 -115.5419 211° Southwest 411 473 34,400 -1,171 Descending Los Angeles Center
Tue 12:10:48 AM 35.1433 -115.6481 232° Southwest 397 457 33,200 -1,073 Descending Los Angeles Center
Tue 12:11:49 AM 35.0728 -115.7486 229° Southwest 391 450 32,200 -1,122 Descending Los Angeles Center
Tue 12:12:51 AM 34.9914 -115.8667 230° Southwest 382 440 30,900 -1,065 Descending Los Angeles Center
Tue 12:13:53 AM 34.9219 -115.9628 229° Southwest 380 437 30,000 -1,024 Descending Los Angeles Center
Tue 12:14:54 AM 34.8519 -116.0578 228° Southwest 378 435 28,800 -1,220 Descending Los Angeles Center
Tue 12:15:56 AM 34.7872 -116.1517 230° Southwest 373 429 27,500 -800 Descending Los Angeles Center
Tue 12:17:09 AM 34.7244 -116.2436 230° Southwest 365 420 27,000 -222 Descending Los Angeles Center
Tue 12:18:11 AM 34.6456 -116.3561 230° Southwest 363 418 27,000  Level Los Angeles Center
Tue 12:19:12 AM 34.5775 -116.4503 229° Southwest 368 423 27,000  Level Los Angeles Center
Tue 12:20:14 AM 34.5111 -116.5444 229° Southwest 367 422 27,000 -242 Level Los Angeles Center
Tue 12:21:16 AM 34.4444 -116.6378 229° Southwest 365 420 26,500 -1,024 Descending Los Angeles Center
Tue 12:22:17 AM 34.3739 -116.7547 234° Southwest 372 428 24,900 -1,244 Descending Los Angeles Center
Tue 12:23:31 AM 34.3500 -116.8725 256° West 359 413 23,700 -1,103 Descending Los Angeles Center
Tue 12:24:33 AM 34.3175 -117.0075 254° West 352 405 22,400 -1,220 Descending Los Angeles Center
Tue 12:25:34 AM 34.2392 -117.0639 211° Southwest 336 387 21,200 -1,366 Descending Los Angeles Center
Tue 12:26:36 AM 34.1519 -117.1072 202° Southwest 353 406 19,600 -978 Descending Los Angeles Center
Tue 12:27:49 AM 34.1239 -117.2064 251° West 347 399 19,000 -267 Descending Los Angeles Center
Tue 12:28:51 AM 34.2278 -117.2817 329° Northwest 354 407 19,000  Level Los Angeles Center
Tue 12:29:53 AM 34.2975 -117.2011 44° Northeast 364 419 19,000  Level Los Angeles Center
Tue 12:30:54 AM 34.2858 -117.0794 97° East 350 403 19,000  Level Los Angeles Center
Tue 12:31:56 AM 34.2425 -116.9853 119° Southeast 325 374 19,000  Level Los Angeles Center
Tue 12:32:57 AM 34.1606 -116.9975 187° South 312 359 19,000 -195 Level Los Angeles Center
Tue 12:33:59 AM 34.1181 -117.0853 240° Southwest 323 372 18,600 -830 Descending Los Angeles Center
Tue 12:34:31 AM 34.0833 -117.1500 237° Southwest 314 361 17,700 -1,043 Descending Southern California TRACON
Tue 12:35:31 AM 34.0500 -117.2333 244° Southwest 301 346 17,000 -600 Descending Southern California TRACON
Tue 12:36:31 AM 34.0333 -117.3333 259° West 303 349 16,500 -1,050 Descending Southern California TRACON
Tue 12:37:31 AM 34.0333 -117.4333 270° West 295 339 14,900 -1,700 Descending Southern California TRACON
Tue 12:38:31 AM 34.0333 -117.5333 270° West 280 322 13,100 -1,834 Descending Southern California TRACON
Tue 12:40:08 AM 34.0219 -117.6883 265° West 291 335 10,100 -1,547 Descending Los Angeles Center
Tue 12:41:10 AM 34.0131 -117.7850 264° West 291 335 9,000 -1,171 Descending Los Angeles Center
Tue 12:42:11 AM 34.0042 -117.8817 264° West 291 335 7,700 -934 Descending Los Angeles Center
Tue 12:43:12 AM 33.9953 -117.9525 261° West 280 322 7,100 -1,024 Descending Los Angeles Center
Tue 12:44:14 AM 33.9886 -118.0514 265° West 218 251 5,600 -1,161 Descending Los Angeles Center
Tue 12:45:16 AM 33.9819 -118.1089 262° West 183 211 4,700 -927 Descending Los Angeles Center
Tue 12:46:17 AM 33.9764 -118.1672 263° West 178 205 3,700 -780 Descending Los Angeles Center
Tue 12:47:19 AM 33.9717 -118.2114 263° West 171 197 3,100 -774 Descending Los Angeles Center
Tue 12:48:21 AM 33.9653 -118.2775 263° West 168 193 2,100 -829 Descending Los Angeles Center
Tue 12:49:22 AM 33.9603 -118.3219 262° West 149 171 1,400 -732 Descending Los Angeles Center
Tue 12:50:24 AM 33.9561 -118.3747 265° West 135 155 600 -634 Descending Los Angeles Center
Tue 12:51:25 AM 33.9517 -118.4092 261° West 134 154 100 -492 Descending Los Angeles Center
Tue 12:53:00 AM 33.9425 -118.4081 259° West  Level Estimated

Login

Don't have an account? Register now (free) for customized features, flight alerts, and more!